Alessandro F — IBVQ — position and weather

sailwx.info

Track history (hours):
 
Tides and Currents Weather Stations Pressure Air Temp Water Temp Dewpoint Dewpoint Depression Visibility Wind Speed Wind Dir Waves Ship Positions

Alessandro F

Last reported at 2015-Jan-28 10:32 UTC. Time now 2015-Feb-01 05:43 UTC.
Position N 36°00' W 005°18'.

Length 100 m; draft 6.3 m.

Type: Ship (hazmat cat B). MMSI: 247046400.

Date/timePositionNaut miles runAvg speedWind from/ knotsBaromVisibWave heightAir tempDewpointWater temp
2015-Jan-28 10:32N 36°00' W 005°18'  
2015-Jan-26 03:09N 36°01' W 005°23'7 0.3
2015-Jan-25 05:05N 36°08' W 005°24'2 4.0
2015-Jan-25 04:32N 36°06' W 005°23'6 6.1
2015-Jan-25 03:33N 36°00' W 005°20'  
2015-Jan-21 02:32N 35°58' W 005°36'1110.6
2015-Jan-21 01:33N 36°00' W 005°24'8 7.5
2015-Jan-21 00:31N 35°54' W 005°18'0 0.0
2015-Jan-20 23:31N 35°54' W 005°18'0 0.0
2015-Jan-20 22:31N 35°54' W 005°18'1 1.4
2015-Jan-20 21:34N 35°55' W 005°18'  
Track history (hours):
 
Tides and Currents Weather Stations Pressure Air Temp Water Temp Dewpoint Dewpoint Depression Visibility Wind Speed Wind Dir Waves Ship Positions

Alessandro F

Last reported at 2015-Jan-28 10:32 UTC. Time now 2015-Feb-01 05:43 UTC.
Position N 36°00' W 005°18'.

Length 100 m; draft 6.3 m.

Type: Ship (hazmat cat B). MMSI: 247046400.

Date/timePositionNaut miles runAvg speedWind from/ knotsBaromVisibWave heightAir tempDewpointWater temp
2015-Jan-28 10:32N 36°00' W 005°18'  
2015-Jan-26 03:09N 36°01' W 005°23'7 0.3
2015-Jan-25 05:05N 36°08' W 005°24'2 4.0
2015-Jan-25 04:32N 36°06' W 005°23'6 6.1
2015-Jan-25 03:33N 36°00' W 005°20'  
2015-Jan-21 02:32N 35°58' W 005°36'1110.6
2015-Jan-21 01:33N 36°00' W 005°24'8 7.5
2015-Jan-21 00:31N 35°54' W 005°18'0 0.0
2015-Jan-20 23:31N 35°54' W 005°18'0 0.0
2015-Jan-20 22:31N 35°54' W 005°18'1 1.4
2015-Jan-20 21:34N 35°55' W 005°18'  

Dump ship's entire track history